createdAt,value
2023-03-12T00:01:25.334Z,79.44
2023-03-12T00:03:54.190Z,80.24
2023-03-12T00:06:21.841Z,80.62
2023-03-12T00:08:51.804Z,80.46
2023-03-12T00:11:21.622Z,79.69
2023-03-12T00:13:59.648Z,79.66
2023-03-12T00:16:27.965Z,79.64
2023-03-12T00:18:55.966Z,79.44
2023-03-12T00:21:23.490Z,80.17
2023-03-12T00:23:53.171Z,79.98
2023-03-12T00:26:23.574Z,80.48
2023-03-12T00:28:51.376Z,79.93
2023-03-12T00:31:23.685Z,79.78
2023-03-12T00:33:50.706Z,79.91
2023-03-12T00:36:21.528Z,80.60
2023-03-12T00:38:48.347Z,79.63
2023-03-12T00:41:15.291Z,79.52
2023-03-12T00:43:42.052Z,78.81
2023-03-12T00:46:10.664Z,79.58
2023-03-12T00:48:37.966Z,79.52
2023-03-12T00:51:05.183Z,80.54
2023-03-12T00:53:32.226Z,81.08
2023-03-12T00:55:58.973Z,80.73
2023-03-12T00:58:25.768Z,80.67
2023-03-12T01:00:52.754Z,80.33
2023-03-12T01:03:20.317Z,80.89
2023-03-12T01:05:49.364Z,80.28
2023-03-12T01:08:16.154Z,80.20
2023-03-12T01:10:43.543Z,80.01
2023-03-12T01:13:10.313Z,79.56
2023-03-12T01:15:37.757Z,78.72
2023-03-12T01:18:04.625Z,78.77
2023-03-12T01:20:34.418Z,79.04
2023-03-12T01:23:01.307Z,79.07
2023-03-12T01:25:28.190Z,79.39
2023-03-12T01:27:54.941Z,79.87
2023-03-12T01:30:24.808Z,80.60
2023-03-12T01:32:52.253Z,80.73
2023-03-12T01:35:19.588Z,80.24
2023-03-12T01:37:46.385Z,79.77
2023-03-12T01:40:19.494Z,79.60
2023-03-12T01:42:55.510Z,78.92
2023-03-12T01:46:21.831Z,80.44
2023-03-12T01:49:14.267Z,80.48
2023-03-12T01:51:55.265Z,79.97
2023-03-12T01:54:36.095Z,79.84
2023-03-12T01:57:08.476Z,80.42
2023-03-12T01:59:56.433Z,81.33
2023-03-12T02:02:28.540Z,81.37
2023-03-12T02:05:33.272Z,82.21
2023-03-12T02:08:00.531Z,81.93
2023-03-12T02:10:28.080Z,81.58
2023-03-12T02:12:57.193Z,80.46
2023-03-12T02:15:24.601Z,80.77
2023-03-12T02:17:51.808Z,81.12
2023-03-12T02:20:42.242Z,81.86
2023-03-12T02:23:32.673Z,81.59
2023-03-12T02:26:03.945Z,82.09
2023-03-12T02:28:42.202Z,82.32
2023-03-12T02:31:12.567Z,82.45
2023-03-12T02:33:39.666Z,82.16
2023-03-12T02:36:06.702Z,82.25
2023-03-12T02:38:55.314Z,82.44
2023-03-12T02:41:28.353Z,81.56
2023-03-12T02:44:04.817Z,80.81
2023-03-12T02:46:43.892Z,81.15
2023-03-12T02:49:13.302Z,81.42
2023-03-12T02:51:42.795Z,81.64
2023-03-12T02:54:12.113Z,81.49
2023-03-12T02:56:40.045Z,81.77
2023-03-12T02:59:09.348Z,82.18
2023-03-12T03:01:37.550Z,81.85
2023-03-12T03:04:07.543Z,81.86
2023-03-12T03:06:41.415Z,81.71
2023-03-12T03:09:08.349Z,81.97
2023-03-12T03:11:35.482Z,82.36
2023-03-12T03:14:04.232Z,82.81
2023-03-12T03:16:31.147Z,82.02
2023-03-12T03:19:00.846Z,83.43
2023-03-12T03:21:27.751Z,83.62
2023-03-12T03:23:54.759Z,83.13
2023-03-12T03:26:23.861Z,82.67
2023-03-12T03:28:51.200Z,82.95
2023-03-12T03:31:19.151Z,82.89
2023-03-12T03:33:46.622Z,83.89
2023-03-12T03:36:14.853Z,83.78
2023-03-12T03:38:50.457Z,82.56
2023-03-12T03:41:19.580Z,81.47
2023-03-12T03:43:47.443Z,80.67
2023-03-12T03:46:15.846Z,81.56
2023-03-12T03:48:42.758Z,82.26
2023-03-12T03:51:11.815Z,82.61
2023-03-12T03:53:38.872Z,83.21
2023-03-12T03:56:12.871Z,83.59
2023-03-12T03:58:39.982Z,83.45
2023-03-12T04:01:07.025Z,84.46
2023-03-12T04:03:35.642Z,84.53
2023-03-12T04:06:05.511Z,85.13
2023-03-12T04:08:35.347Z,84.63
2023-03-12T04:11:23.457Z,84.48
2023-03-12T04:13:50.928Z,84.22
2023-03-12T04:16:18.701Z,82.87
2023-03-12T04:18:48.349Z,83.60
2023-03-12T04:21:17.117Z,83.58
2023-03-12T04:23:44.098Z,83.96
2023-03-12T04:26:11.519Z,84.08
2023-03-12T04:28:38.748Z,83.45
2023-03-12T04:31:08.630Z,83.06
2023-03-12T04:33:39.054Z,83.36
2023-03-12T04:36:10.161Z,83.78
2023-03-12T04:38:37.209Z,84.30
2023-03-12T04:41:13.962Z,84.38
2023-03-12T04:43:41.544Z,83.25
2023-03-12T04:46:11.428Z,83.00
2023-03-12T04:48:38.385Z,82.88
2023-03-12T04:51:06.351Z,82.75
2023-03-12T04:53:33.620Z,82.05
2023-03-12T04:56:02.616Z,82.13
2023-03-12T04:58:29.406Z,82.33
2023-03-12T05:00:56.212Z,82.85
2023-03-12T05:03:23.049Z,83.26
2023-03-12T05:05:49.882Z,83.57
2023-03-12T05:08:16.672Z,83.53
2023-03-12T05:10:46.207Z,84.11
2023-03-12T05:13:18.469Z,85.03
2023-03-12T05:15:47.544Z,84.97
2023-03-12T05:18:14.634Z,85.19
2023-03-12T05:20:41.418Z,86.53
2023-03-12T05:23:08.345Z,89.39
2023-03-12T05:25:40.526Z,91.61
2023-03-12T05:28:07.591Z,92.69
2023-03-12T05:30:34.496Z,93.29
2023-03-12T05:33:03.998Z,93.87
2023-03-12T05:35:31.122Z,92.67
2023-03-12T05:37:57.824Z,94.20
2023-03-12T05:40:24.612Z,94.83
2023-03-12T05:42:53.031Z,96.58
2023-03-12T05:45:19.842Z,96.03
2023-03-12T05:47:46.574Z,95.47
2023-03-12T05:50:13.604Z,94.72
2023-03-12T05:52:40.362Z,93.35
2023-03-12T05:55:08.298Z,95.00
2023-03-12T05:57:35.178Z,96.14
2023-03-12T06:00:02.159Z,97.72
2023-03-12T06:02:29.651Z,95.82
2023-03-12T06:04:58.314Z,96.24
2023-03-12T06:07:25.193Z,98.45
2023-03-12T06:09:51.969Z,97.68
2023-03-12T06:12:18.699Z,99.23
2023-03-12T06:14:45.529Z,98.96
2023-03-12T06:17:12.290Z,98.75
2023-03-12T06:19:39.076Z,100.00
2023-03-12T06:22:05.932Z,96.99
2023-03-12T06:24:32.690Z,97.80
2023-03-12T06:26:59.512Z,99.36
2023-03-12T06:29:26.365Z,99.57
2023-03-12T06:31:53.443Z,100.00
2023-03-12T06:34:20.349Z,100.00
2023-03-12T06:36:47.271Z,100.00
2023-03-12T06:39:14.055Z,100.00
2023-03-12T06:41:41.739Z,100.00
2023-03-12T06:44:08.563Z,100.00
2023-03-12T06:46:35.537Z,100.00
2023-03-12T06:49:02.570Z,100.00
2023-03-12T06:51:29.354Z,100.00
2023-03-12T06:53:56.127Z,100.00
2023-03-12T06:56:22.906Z,100.00
2023-03-12T06:58:50.105Z,100.00
2023-03-12T07:01:16.990Z,100.00
2023-03-12T07:03:43.861Z,100.00
2023-03-12T07:06:20.721Z,100.00
2023-03-12T07:08:48.639Z,100.00
2023-03-12T07:11:16.450Z,100.00
2023-03-12T07:13:43.672Z,100.00
2023-03-12T07:16:11.627Z,100.00
2023-03-12T07:18:41.568Z,100.00
2023-03-12T07:21:08.552Z,100.00
2023-03-12T07:23:37.626Z,100.00
2023-03-12T07:26:06.115Z,100.00
2023-03-12T07:28:33.221Z,100.00
2023-03-12T07:31:03.018Z,100.00
2023-03-12T07:33:30.232Z,100.00
2023-03-12T07:35:57.404Z,100.00
2023-03-12T07:38:24.837Z,100.00
2023-03-12T07:40:54.355Z,100.00
2023-03-12T07:43:22.072Z,100.00
2023-03-12T07:45:49.748Z,100.00
2023-03-12T07:48:19.443Z,100.00
2023-03-12T07:50:46.525Z,100.00
2023-03-12T07:53:13.651Z,100.00
2023-03-12T07:55:40.647Z,100.00
2023-03-12T07:58:07.622Z,100.00
2023-03-12T08:00:34.519Z,100.00
2023-03-12T08:03:01.553Z,100.00
2023-03-12T08:05:28.523Z,100.00
2023-03-12T08:07:55.493Z,100.00
2023-03-12T08:10:23.274Z,100.00
2023-03-12T08:12:50.351Z,100.00
2023-03-12T08:15:17.499Z,100.00
2023-03-12T08:17:44.465Z,100.00
2023-03-12T08:20:12.506Z,100.00
2023-03-12T08:22:40.513Z,100.00
2023-03-12T08:25:08.707Z,100.00
2023-03-12T08:27:35.994Z,100.00
2023-03-12T08:30:04.485Z,100.00
2023-03-12T08:32:32.482Z,100.00
2023-03-12T08:34:59.375Z,100.00
2023-03-12T08:37:26.193Z,100.00
2023-03-12T08:39:56.202Z,100.00
2023-03-12T08:42:23.067Z,100.00
2023-03-12T08:44:50.897Z,100.00
2023-03-12T08:47:17.727Z,100.00
2023-03-12T08:49:44.736Z,100.00
2023-03-12T08:52:16.728Z,100.00
2023-03-12T08:54:44.029Z,100.00
2023-03-12T08:57:10.930Z,100.00
2023-03-12T08:59:38.462Z,100.00
2023-03-12T09:02:06.260Z,100.00
2023-03-12T09:04:33.256Z,100.00
2023-03-12T09:07:01.651Z,100.00
2023-03-12T09:09:28.532Z,100.00
2023-03-12T09:11:55.459Z,100.00
2023-03-12T09:15:01.093Z,100.00
2023-03-12T09:17:09.753Z,100.00
2023-03-12T09:19:36.557Z,100.00
2023-03-12T09:22:03.374Z,100.00
2023-03-12T09:24:30.427Z,100.00
2023-03-12T09:26:57.240Z,100.00
2023-03-12T09:29:24.758Z,100.00
2023-03-12T09:31:52.121Z,100.00
2023-03-12T09:34:18.945Z,100.00
2023-03-12T09:36:45.694Z,100.00
2023-03-12T09:39:12.959Z,100.00
2023-03-12T09:41:42.028Z,100.00
2023-03-12T09:44:32.120Z,100.00
2023-03-12T09:47:37.603Z,100.00
2023-03-12T09:50:28.932Z,100.00
2023-03-12T09:53:48.574Z,100.00
2023-03-12T09:56:19.820Z,100.00
2023-03-12T09:58:48.664Z,100.00
2023-03-12T10:01:53.137Z,100.00
2023-03-12T10:05:00.307Z,100.00
2023-03-12T10:07:46.320Z,100.00
2023-03-12T10:10:49.791Z,100.00
2023-03-12T10:14:24.246Z,100.00
2023-03-12T10:17:06.796Z,100.00
2023-03-12T10:20:11.367Z,100.00
2023-03-12T10:23:04.572Z,100.00
2023-03-12T10:25:59.451Z,100.00
2023-03-12T10:28:50.707Z,100.00
2023-03-12T10:31:35.971Z,100.00
2023-03-12T10:34:15.400Z,100.00
2023-03-12T10:36:46.604Z,100.00
2023-03-12T10:39:20.104Z,100.00
2023-03-12T10:41:48.625Z,100.00
2023-03-12T10:44:24.658Z,100.00
2023-03-12T10:47:04.794Z,100.00
2023-03-12T10:49:37.587Z,100.00
2023-03-12T10:52:23.428Z,100.00
2023-03-12T10:54:53.564Z,100.00
2023-03-12T10:57:21.214Z,100.00
2023-03-12T10:59:50.875Z,100.00
2023-03-12T11:02:43.303Z,100.00
2023-03-12T11:05:34.313Z,100.00
2023-03-12T11:08:04.135Z,100.00
2023-03-12T11:10:45.006Z,100.00
2023-03-12T11:13:28.227Z,100.00
2023-03-12T11:15:57.359Z,100.00
2023-03-12T11:18:36.400Z,100.00
2023-03-12T11:21:09.314Z,100.00
2023-03-12T11:23:43.138Z,100.00
2023-03-12T11:26:23.340Z,100.00
2023-03-12T11:28:59.202Z,100.00
2023-03-12T11:31:39.960Z,100.00
2023-03-12T11:34:21.107Z,100.00
2023-03-12T11:37:18.993Z,100.00
2023-03-12T11:40:19.237Z,100.00
2023-03-12T11:43:10.662Z,100.00
2023-03-12T11:45:54.440Z,100.00
2023-03-12T11:48:40.244Z,100.00
2023-03-12T11:51:35.715Z,100.00
2023-03-12T11:54:29.899Z,100.00
2023-03-12T11:57:06.166Z,100.00
2023-03-12T12:00:14.503Z,100.00
2023-03-12T12:03:12.188Z,100.00
2023-03-12T12:06:17.196Z,100.00
2023-03-12T12:08:52.960Z,100.00
2023-03-12T12:11:37.989Z,100.00
2023-03-12T12:14:31.019Z,100.00
2023-03-12T12:17:23.158Z,100.00
2023-03-12T12:20:11.560Z,100.00
2023-03-12T12:23:17.200Z,100.00
2023-03-12T12:26:13.850Z,100.00
2023-03-12T12:29:03.520Z,100.00
2023-03-12T12:31:32.525Z,100.00
2023-03-12T12:34:02.181Z,100.00
2023-03-12T12:36:35.448Z,100.00
2023-03-12T12:39:13.673Z,100.00
2023-03-12T12:41:51.483Z,100.00
2023-03-12T12:44:27.496Z,100.00
2023-03-12T12:47:03.716Z,100.00
2023-03-12T12:49:47.378Z,100.00
2023-03-12T12:52:21.690Z,100.00
2023-03-12T12:55:25.750Z,100.00
2023-03-12T12:58:15.754Z,88.98
2023-03-12T13:01:00.982Z,84.04
2023-03-12T13:03:30.447Z,88.51
2023-03-12T13:06:04.966Z,87.21
2023-03-12T13:08:42.867Z,87.25
2023-03-12T13:11:27.069Z,87.42
2023-03-12T13:14:22.122Z,88.75
2023-03-12T13:16:49.982Z,83.85
2023-03-12T13:19:16.697Z,86.97
2023-03-12T13:22:36.805Z,90.66
2023-03-12T13:25:30.242Z,94.27
2023-03-12T13:28:00.365Z,97.89
2023-03-12T13:30:33.428Z,100.00
2023-03-12T13:33:02.869Z,100.00
2023-03-12T13:35:40.386Z,100.00
2023-03-12T13:38:17.609Z,100.00
2023-03-12T13:41:01.027Z,100.00
2023-03-12T13:43:52.404Z,100.00
2023-03-12T13:46:40.226Z,100.00
2023-03-12T13:49:16.541Z,100.00
2023-03-12T13:51:47.446Z,100.00
2023-03-12T13:54:19.582Z,100.00
2023-03-12T13:56:58.579Z,96.68
2023-03-12T13:59:28.295Z,93.19
2023-03-12T14:02:04.704Z,87.39
2023-03-12T14:04:40.726Z,86.59
2023-03-12T14:07:35.369Z,85.61
2023-03-12T14:10:30.097Z,86.05
2023-03-12T14:13:24.581Z,87.13
2023-03-12T14:16:26.183Z,86.83
2023-03-12T14:18:54.377Z,78.95
2023-03-12T14:21:27.933Z,74.89
2023-03-12T14:23:58.522Z,69.89
2023-03-12T14:26:33.718Z,69.51
2023-03-12T14:29:28.166Z,69.19
2023-03-12T14:32:05.847Z,70.13
2023-03-12T14:34:43.034Z,71.18
2023-03-12T14:37:24.880Z,73.36
2023-03-12T14:40:01.702Z,73.26
2023-03-12T14:42:32.807Z,75.48
2023-03-12T14:45:07.648Z,77.21
2023-03-12T14:47:42.967Z,78.95
2023-03-12T14:50:25.331Z,82.23
2023-03-12T14:52:53.248Z,82.24
2023-03-12T14:55:24.735Z,81.82
2023-03-12T14:58:18.094Z,83.91
2023-03-12T15:00:54.612Z,83.48
2023-03-12T15:03:21.688Z,84.00
2023-03-12T15:05:51.047Z,84.39
2023-03-12T15:08:19.766Z,84.04
2023-03-12T15:10:58.269Z,84.79
2023-03-12T15:13:27.480Z,85.84
2023-03-12T15:15:56.011Z,85.68
2023-03-12T15:18:32.902Z,83.62
2023-03-12T15:21:03.017Z,85.63
2023-03-12T15:23:37.676Z,85.11
2023-03-12T15:26:19.566Z,85.54
2023-03-12T15:29:03.113Z,82.45
2023-03-12T15:31:49.401Z,83.68
2023-03-12T15:34:38.001Z,84.37
2023-03-12T15:37:37.719Z,83.37
2023-03-12T15:40:24.020Z,81.33
2023-03-12T15:42:53.280Z,81.08
2023-03-12T15:45:25.517Z,79.15
2023-03-12T15:47:54.873Z,79.49
2023-03-12T15:50:36.351Z,79.25
2023-03-12T15:53:16.360Z,79.94
2023-03-12T15:56:02.890Z,80.96
2023-03-12T15:58:37.241Z,80.98
2023-03-12T16:01:12.885Z,80.60
2023-03-12T16:03:45.371Z,81.67
2023-03-12T16:06:19.614Z,81.19
2023-03-12T16:08:52.865Z,82.00
2023-03-12T16:11:31.340Z,82.54
2023-03-12T16:14:18.892Z,82.21
2023-03-12T16:16:46.868Z,82.67
2023-03-12T16:19:17.981Z,82.74
2023-03-12T16:21:45.318Z,82.21
2023-03-12T16:24:12.494Z,82.63
2023-03-12T16:26:53.286Z,82.63
2023-03-12T16:29:21.973Z,82.42
2023-03-12T16:31:55.873Z,82.54
2023-03-12T16:34:23.767Z,82.72
2023-03-12T16:36:51.879Z,82.43
2023-03-12T16:39:19.437Z,83.08
2023-03-12T16:41:52.641Z,82.73
2023-03-12T16:44:32.572Z,82.02
2023-03-12T16:47:04.441Z,82.12
2023-03-12T16:49:31.413Z,81.95
2023-03-12T16:52:06.257Z,82.05
2023-03-12T16:54:35.672Z,82.04
2023-03-12T16:57:02.979Z,82.36
2023-03-12T16:59:33.337Z,82.36
2023-03-12T17:02:00.210Z,82.52
2023-03-12T17:04:27.347Z,82.51
2023-03-12T17:06:58.010Z,83.08
2023-03-12T17:09:25.201Z,83.06
2023-03-12T17:11:52.720Z,83.53
2023-03-12T17:14:23.967Z,84.81
2023-03-12T17:16:53.998Z,85.44
2023-03-12T17:19:21.993Z,86.69
2023-03-12T17:21:49.903Z,87.93
2023-03-12T17:24:19.000Z,88.16
2023-03-12T17:26:46.715Z,89.95
2023-03-12T17:29:16.375Z,89.81
2023-03-12T17:31:43.447Z,90.95
2023-03-12T17:34:11.213Z,92.61
2023-03-12T17:36:38.609Z,92.97
2023-03-12T17:39:05.608Z,93.66
2023-03-12T17:41:36.667Z,93.90
2023-03-12T17:44:07.054Z,94.09
2023-03-12T17:46:40.615Z,94.20
2023-03-12T17:49:27.416Z,94.92
2023-03-12T17:51:55.137Z,96.40
2023-03-12T17:54:22.356Z,97.93
2023-03-12T17:56:53.617Z,97.76
2023-03-12T17:59:20.701Z,95.26
2023-03-12T18:01:57.503Z,96.51
2023-03-12T18:04:28.587Z,96.34
2023-03-12T18:06:55.398Z,97.46
2023-03-12T18:09:22.351Z,94.64
2023-03-12T18:11:52.670Z,97.62
2023-03-12T18:14:22.810Z,97.35
2023-03-12T18:16:49.920Z,96.76
2023-03-12T18:19:17.435Z,98.72
2023-03-12T18:21:45.297Z,99.06
2023-03-12T18:24:14.355Z,98.71
2023-03-12T18:26:48.819Z,99.85
2023-03-12T18:29:15.642Z,100.00
2023-03-12T18:31:42.684Z,100.00
2023-03-12T18:34:11.778Z,100.00
2023-03-12T18:36:38.942Z,100.00
2023-03-12T18:39:09.868Z,100.00
2023-03-12T18:41:56.851Z,100.00
2023-03-12T18:44:25.424Z,100.00
2023-03-12T18:46:54.195Z,100.00
2023-03-12T18:49:21.906Z,100.00
2023-03-12T18:51:58.320Z,100.00
2023-03-12T18:54:28.217Z,100.00
2023-03-12T18:57:12.867Z,100.00
2023-03-12T18:59:45.929Z,100.00
2023-03-12T19:02:13.842Z,100.00
2023-03-12T19:04:41.279Z,100.00
2023-03-12T19:07:11.031Z,100.00
2023-03-12T19:09:39.090Z,100.00
2023-03-12T19:12:07.608Z,100.00
2023-03-12T19:14:38.188Z,100.00
2023-03-12T19:17:05.294Z,100.00
2023-03-12T19:19:41.017Z,100.00
2023-03-12T19:22:15.148Z,100.00
2023-03-12T19:24:46.350Z,100.00
2023-03-12T19:27:17.361Z,100.00
2023-03-12T19:29:44.581Z,100.00
2023-03-12T19:32:11.430Z,100.00
2023-03-12T19:34:39.224Z,100.00
2023-03-12T19:37:08.813Z,100.00
2023-03-12T19:39:35.566Z,100.00
2023-03-12T19:42:05.700Z,100.00
2023-03-12T19:44:36.211Z,100.00
2023-03-12T19:47:06.815Z,100.00
2023-03-12T19:49:35.292Z,100.00
2023-03-12T19:52:04.163Z,100.00
2023-03-12T19:54:34.602Z,100.00
2023-03-12T19:57:01.553Z,100.00
2023-03-12T19:59:29.665Z,100.00
2023-03-12T20:01:57.012Z,100.00
2023-03-12T20:04:26.896Z,100.00
2023-03-12T20:06:53.850Z,100.00
2023-03-12T20:09:23.667Z,100.00
2023-03-12T20:11:50.834Z,100.00
2023-03-12T20:14:17.988Z,100.00
2023-03-12T20:16:47.563Z,100.00
2023-03-12T20:19:28.753Z,100.00
2023-03-12T20:21:57.350Z,100.00
2023-03-12T20:24:24.654Z,100.00
2023-03-12T20:26:55.076Z,100.00
2023-03-12T20:29:22.894Z,100.00
2023-03-12T20:31:50.918Z,100.00
2023-03-12T20:34:20.386Z,100.00
2023-03-12T20:36:49.974Z,100.00
2023-03-12T20:39:21.457Z,100.00
2023-03-12T20:41:50.308Z,100.00
2023-03-12T20:44:21.725Z,100.00
2023-03-12T20:46:48.810Z,100.00
2023-03-12T20:49:23.395Z,100.00
2023-03-12T20:51:50.805Z,100.00
2023-03-12T20:54:19.067Z,100.00
2023-03-12T20:56:46.408Z,100.00
2023-03-12T20:59:14.080Z,100.00
2023-03-12T21:01:41.461Z,100.00
2023-03-12T21:04:08.460Z,100.00
2023-03-12T21:06:35.291Z,100.00
2023-03-12T21:09:02.818Z,100.00
2023-03-12T21:11:31.192Z,100.00
2023-03-12T21:13:59.921Z,100.00
2023-03-12T21:16:27.127Z,100.00
2023-03-12T21:18:58.016Z,100.00
2023-03-12T21:21:25.222Z,100.00
2023-03-12T21:23:52.312Z,100.00
2023-03-12T21:26:19.564Z,100.00
2023-03-12T21:28:46.440Z,100.00
2023-03-12T21:31:16.899Z,100.00
2023-03-12T21:33:44.240Z,100.00
2023-03-12T21:36:16.340Z,100.00
2023-03-12T21:38:43.359Z,100.00
2023-03-12T21:41:17.602Z,100.00
2023-03-12T21:43:46.036Z,100.00
2023-03-12T21:46:19.539Z,100.00
2023-03-12T21:48:50.395Z,100.00
2023-03-12T21:51:19.559Z,100.00
2023-03-12T21:53:46.710Z,100.00
2023-03-12T21:56:13.636Z,100.00
2023-03-12T21:58:40.616Z,100.00
2023-03-12T22:01:17.046Z,100.00
2023-03-12T22:03:46.712Z,100.00
2023-03-12T22:06:15.854Z,100.00
2023-03-12T22:08:44.709Z,100.00
2023-03-12T22:11:12.633Z,100.00
2023-03-12T22:13:39.709Z,100.00
2023-03-12T22:16:09.524Z,100.00
2023-03-12T22:18:45.624Z,100.00
2023-03-12T22:21:22.227Z,100.00
2023-03-12T22:23:52.366Z,100.00
2023-03-12T22:26:26.393Z,100.00
2023-03-12T22:28:58.037Z,100.00
2023-03-12T22:31:30.091Z,100.00
2023-03-12T22:33:57.430Z,100.00
2023-03-12T22:36:27.601Z,100.00
2023-03-12T22:38:54.527Z,100.00
2023-03-12T22:41:28.596Z,100.00
2023-03-12T22:44:01.444Z,100.00
2023-03-12T22:46:29.057Z,100.00
2023-03-12T22:48:59.771Z,100.00
2023-03-12T22:51:29.059Z,100.00
2023-03-12T22:53:56.095Z,100.00
2023-03-12T22:56:23.252Z,100.00
2023-03-12T22:58:56.320Z,100.00
2023-03-12T23:01:23.928Z,100.00
2023-03-12T23:03:52.603Z,100.00
2023-03-12T23:06:29.898Z,100.00
2023-03-12T23:08:57.641Z,100.00
2023-03-12T23:11:27.915Z,100.00
2023-03-12T23:13:57.531Z,100.00
2023-03-12T23:16:26.617Z,100.00
2023-03-12T23:18:53.818Z,100.00
2023-03-12T23:21:23.877Z,100.00
2023-03-12T23:23:51.915Z,100.00
2023-03-12T23:26:26.580Z,100.00
2023-03-12T23:28:56.023Z,100.00
2023-03-12T23:31:23.738Z,100.00
2023-03-12T23:33:50.947Z,100.00
2023-03-12T23:36:21.594Z,100.00
2023-03-12T23:38:49.905Z,100.00
2023-03-12T23:41:23.793Z,100.00
2023-03-12T23:43:59.287Z,100.00
2023-03-12T23:46:30.037Z,100.00
2023-03-12T23:48:57.454Z,100.00
2023-03-12T23:51:33.474Z,100.00
2023-03-12T23:54:05.231Z,100.00
2023-03-12T23:56:35.703Z,100.00
2023-03-12T23:59:04.631Z,100.00
